Time;durP1;ratioP1;P1;durP2;ratioP2;P2;SDS_P1;SDS_P2;PMS_P1;PMS_P2;Temp;Humidity;BMP_temperature;BMP_pressure;BME280_temperature;BME280_humidity;BME280_pressure;Samples;Min_cycle;Max_cycle;Signal;HPM_P1;HPM_P2
2021/03/20 00:00:56;;;;;;;46.13;38.43;;;;;;;21.54;40.84;99874.72;2081437;28;20463;-42
2021/03/20 00:01:56;;;;;;;46.88;40.05;;;;;;;21.53;40.69;99875.72;2079399;28;20026;-43
2021/03/20 00:02:57;;;;;;;45.37;39.87;;;;;;;21.53;40.61;99875.72;2076519;28;20072;-44
2021/03/20 00:03:58;;;;;;;46.17;38.60;;;;;;;21.53;40.61;99876.56;2080520;28;20036;-43
2021/03/20 00:04:58;;;;;;;45.45;39.17;;;;;;;21.53;40.61;99878.47;2078555;28;20309;-45
2021/03/20 00:05:59;;;;;;;46.27;37.93;;;;;;;21.54;40.66;99871.97;2077935;28;20474;-45
2021/03/20 00:07:00;;;;;;;45.15;39.33;;;;;;;21.53;40.70;99875.72;2080162;28;20049;-45
2021/03/20 00:08:01;;;;;;;47.93;40.47;;;;;;;21.54;40.80;99880.19;2076427;28;20117;-45
2021/03/20 00:09:06;;;;;;;43.30;37.97;;;;;;;21.53;40.90;99872.97;2080673;28;20398;-46
2021/03/20 00:10:10;;;;;;;41.85;37.00;;;;;;;21.51;41.19;99883.25;2081221;28;20026;-45
2021/03/20 00:11:12;;;;;;;44.97;38.45;;;;;;;21.51;41.08;99872.28;2081511;28;20091;-47
2021/03/20 00:12:12;;;;;;;;;;;;;;;21.48;41.07;99884.47;2083241;28;20036;-47
2021/03/20 00:13:14;;;;;;;48.38;38.95;;;;;;;21.48;40.96;99876.22;2082169;28;19924;-44
2021/03/20 00:14:18;;;;;;;45.50;38.55;;;;;;;21.46;41.14;99877.44;2078167;28;20116;-45
2021/03/20 00:15:24;;;;;;;44.80;38.55;;;;;;;21.46;41.19;99880.16;2079367;28;20034;-40
2021/03/20 00:16:25;;;;;;;44.92;38.33;;;;;;;21.24;41.37;99877.06;2079643;28;20025;-42
2021/03/20 00:17:25;;;;;;;42.08;36.97;;;;;;;21.15;41.65;99880.81;2079649;28;20060;-40
2021/03/20 00:18:26;;;;;;;41.07;34.33;;;;;;;21.02;41.77;99883.16;2080759;28;20040;-42
2021/03/20 00:19:27;;;;;;;42.25;35.92;;;;;;;20.93;42.05;99885.03;2082305;28;20033;-42
2021/03/20 00:20:31;;;;;;;43.17;34.87;;;;;;;20.88;42.10;99877.31;2076445;28;20057;-42
2021/03/20 00:21:32;;;;;;;44.55;36.50;;;;;;;20.84;42.25;99881.41;2078330;28;20033;-41
2021/03/20 00:22:32;;;;;;;40.53;35.50;;;;;;;20.82;42.13;99883.44;2081614;28;20148;-42
2021/03/20 00:23:32;;;;;;;40.07;35.07;;;;;;;20.77;42.41;99883.09;2080242;28;20052;-40
2021/03/20 00:24:33;;;;;;;44.13;36.00;;;;;;;20.72;42.44;99882.72;2080747;28;20052;-42
2021/03/20 00:25:34;;;;;;;40.63;34.03;;;;;;;20.71;42.24;99886.50;2081102;28;20116;-42
2021/03/20 00:26:35;;;;;;;44.33;35.63;;;;;;;20.69;42.34;99888.56;2078308;28;20022;-41
2021/03/20 00:27:35;;;;;;;38.97;32.72;;;;;;;20.67;42.37;99887.84;2073670;28;20325;-42
2021/03/20 00:28:37;;;;;;;40.67;34.17;;;;;;;20.65;42.34;99892.63;2070274;28;20018;-42
2021/03/20 00:29:37;;;;;;;44.25;36.35;;;;;;;20.65;42.31;99888.03;2074892;28;20189;-41
2021/03/20 00:30:40;;;;;;;43.00;36.00;;;;;;;20.64;42.35;99888.19;2078533;28;20432;-41
2021/03/20 00:31:40;;;;;;;41.88;35.13;;;;;;;20.63;42.37;99886.47;2079340;28;20026;-41
2021/03/20 00:32:41;;;;;;;41.37;33.60;;;;;;;20.61;42.41;99889.38;2082492;28;20037;-41
2021/03/20 00:33:44;;;;;;;39.27;34.00;;;;;;;20.62;42.51;99888.34;2079795;28;20048;-41
2021/03/20 00:34:44;;;;;;;41.60;35.33;;;;;;;20.60;42.55;99889.53;2076368;28;20033;-42
2021/03/20 00:35:45;;;;;;;44.00;36.47;;;;;;;20.60;42.71;99895.00;2080799;28;20072;-42
2021/03/20 00:36:46;;;;;;;40.60;35.73;;;;;;;20.61;42.47;99897.59;2079879;28;20056;-41
2021/03/20 00:37:46;;;;;;;42.43;36.27;;;;;;;20.58;42.68;99903.41;2076321;28;20060;-41
2021/03/20 00:38:47;;;;;;;42.53;35.40;;;;;;;20.58;42.57;99903.41;2079468;28;20041;-41
2021/03/20 00:39:47;;;;;;;42.93;35.90;;;;;;;20.58;42.65;99897.06;2073618;28;20040;-41
2021/03/20 00:40:48;;;;;;;39.27;33.70;;;;;;;20.60;42.63;99905.97;2080711;28;20067;-40
2021/03/20 00:41:48;;;;;;;42.50;36.77;;;;;;;20.58;42.71;99903.41;2079798;28;20033;-42
2021/03/20 00:42:49;;;;;;;41.37;34.83;;;;;;;20.59;42.67;99898.78;2079436;28;20052;-41
2021/03/20 00:43:50;;;;;;;41.60;34.20;;;;;;;20.59;42.83;99912.47;2081376;28;20033;-41
2021/03/20 00:44:50;;;;;;;39.63;35.00;;;;;;;20.59;42.68;99907.00;2079261;28;20138;-42
2021/03/20 00:45:51;;;;;;;43.50;36.80;;;;;;;20.57;42.72;99909.88;2078933;28;20056;-41
2021/03/20 00:46:52;;;;;;;41.13;36.15;;;;;;;20.59;42.72;99917.94;2082115;28;20029;-42
2021/03/20 00:47:53;;;;;;;42.13;34.73;;;;;;;20.58;42.64;99913.47;2076025;28;20135;-41
2021/03/20 00:48:54;;;;;;;44.47;34.22;;;;;;;20.58;42.69;99913.47;2075985;28;20037;-41
2021/03/20 00:49:54;;;;;;;40.60;33.70;;;;;;;20.58;42.79;99913.47;2080980;28;20065;-41
2021/03/20 00:50:56;;;;;;;39.13;34.33;;;;;;;20.58;42.71;99918.97;2079813;28;20033;-41
2021/03/20 00:51:56;;;;;;;41.88;33.53;;;;;;;20.58;42.83;99922.56;2079414;28;20304;-41
2021/03/20 00:52:57;;;;;;;39.17;33.17;;;;;;;20.58;42.68;99918.97;2077900;28;20105;-40
2021/03/20 00:53:58;;;;;;;40.13;32.37;;;;;;;20.55;42.83;99912.81;2080374;28;20033;-41
2021/03/20 00:54:58;;;;;;;41.27;34.30;;;;;;;20.54;42.72;99924.75;2073955;28;20089;-41
2021/03/20 00:56:00;;;;;;;38.37;33.20;;;;;;;20.53;42.72;99923.03;2079101;28;20120;-41
2021/03/20 00:57:00;;;;;;;38.70;34.35;;;;;;;20.53;42.78;99922.19;2083703;28;20052;-42
2021/03/20 00:58:36;;;;;;;38.03;32.37;;;;;;;20.54;42.94;99921.16;2078819;28;20034;-42
2021/03/20 00:59:37;;;;;;;39.60;34.42;;;;;;;20.52;42.93;99926.78;2073088;28;20053;-41
2021/03/20 01:00:38;;;;;;;40.45;34.33;;;;;;;20.52;42.85;99923.19;2076138;28;20033;-41
2021/03/20 01:01:38;;;;;;;40.37;32.00;;;;;;;20.52;42.77;99921.31;2074050;28;20161;-41
2021/03/20 01:02:39;;;;;;;38.73;33.03;;;;;;;20.51;42.83;99922.34;2081076;28;20027;-42
2021/03/20 01:03:40;;;;;;;37.10;31.67;;;;;;;20.50;42.90;99928.81;2081723;28;20033;-41
2021/03/20 01:04:41;;;;;;;36.38;32.42;;;;;;;20.48;43.09;99925.41;2080941;28;20030;-41
2021/03/20 01:05:42;;;;;;;40.37;32.47;;;;;;;20.47;42.91;99923.66;2079680;28;20120;-42
2021/03/20 01:06:43;;;;;;;37.30;30.63;;;;;;;20.47;42.99;99926.41;2081390;28;20060;-42
2021/03/20 01:07:44;;;;;;;37.23;31.90;;;;;;;20.46;42.99;99921.97;2079378;28;20033;-40
2021/03/20 01:08:44;;;;;;;37.50;31.63;;;;;;;20.47;42.92;99920.09;2080731;28;20040;-41
2021/03/20 01:09:45;;;;;;;36.73;32.37;;;;;;;20.44;42.95;99918.53;2081424;28;20072;-41
2021/03/20 01:10:46;;;;;;;35.50;30.70;;;;;;;20.44;43.03;99923.16;2078561;28;20030;-42
2021/03/20 01:11:46;;;;;;;38.47;31.67;;;;;;;20.43;43.14;99918.69;2080884;28;20022;-40
2021/03/20 01:12:47;;;;;;;38.73;33.10;;;;;;;20.43;42.87;99927.78;2080949;28;20028;-41
2021/03/20 01:13:47;;;;;;;37.17;31.97;;;;;;;20.42;42.98;99926.03;2073920;28;20036;-40
2021/03/20 01:14:48;;;;;;;36.43;31.97;;;;;;;20.42;42.92;99920.56;2074310;28;20037;-40
2021/03/20 01:15:49;;;;;;;38.97;34.13;;;;;;;20.40;43.13;99917.13;2078813;28;20034;-41
2021/03/20 01:16:49;;;;;;;37.83;32.40;;;;;;;20.39;43.11;99920.91;2073880;28;20034;-42
2021/03/20 01:17:50;;;;;;;39.00;33.00;;;;;;;20.38;42.98;99924.63;2079066;28;20025;-42
2021/03/20 01:18:50;;;;;;;38.13;31.77;;;;;;;20.36;43.11;99921.22;2081972;28;20040;-40
2021/03/20 01:19:51;;;;;;;37.87;31.53;;;;;;;20.37;43.21;99925.66;2081608;28;20021;-41
2021/03/20 01:20:52;;;;;;;37.70;30.37;;;;;;;20.35;43.06;99924.97;2079158;28;20035;-41
2021/03/20 01:21:52;;;;;;;36.33;30.83;;;;;;;20.35;43.19;99922.22;2080314;28;20125;-40
2021/03/20 01:22:53;;;;;;;39.77;33.60;;;;;;;20.33;42.93;99927.88;2077001;28;20029;-42
2021/03/20 01:23:53;;;;;;;36.00;30.37;;;;;;;20.34;43.13;99923.28;2073826;28;20064;-41
2021/03/20 01:24:54;;;;;;;36.50;31.20;;;;;;;20.33;43.09;99927.00;2074855;28;20022;-41
2021/03/20 01:25:54;;;;;;;35.73;31.43;;;;;;;20.30;43.12;99925.47;2079552;28;20029;-42
2021/03/20 01:26:55;;;;;;;36.07;31.27;;;;;;;20.30;43.15;99921.88;2082299;28;20086;-41
2021/03/20 01:27:55;;;;;;;36.07;31.10;;;;;;;20.30;43.19;99921.88;2083131;28;20017;-41
2021/03/20 01:28:55;;;;;;;38.33;31.63;;;;;;;20.29;43.27;99931.13;2076260;28;20041;-42
2021/03/20 01:29:56;;;;;;;37.40;31.20;;;;;;;20.28;43.24;99923.91;2081795;28;20043;-40
2021/03/20 01:30:58;;;;;;;33.63;29.87;;;;;;;20.26;43.30;99932.28;2075246;28;20462;-42
2021/03/20 01:31:58;;;;;;;36.13;31.52;;;;;;;20.26;43.28;99925.94;2074603;28;20040;-41
2021/03/20 01:32:59;;;;;;;36.20;31.73;;;;;;;20.26;43.23;99920.47;2081059;28;20041;-40
2021/03/20 01:33:59;;;;;;;38.97;33.13;;;;;;;20.25;43.29;99929.72;2070641;28;20436;-40
2021/03/20 01:35:00;;;;;;;36.07;30.77;;;;;;;20.23;43.40;99913.44;2067695;28;20025;-41
2021/03/20 01:36:00;;;;;;;37.77;31.53;;;;;;;20.23;43.40;99915.31;2073729;28;20061;-42
2021/03/20 01:37:01;;;;;;;35.73;31.20;;;;;;;20.21;43.42;99928.31;2082364;28;20549;-41
2021/03/20 01:38:04;;;;;;;37.90;29.83;;;;;;;20.20;43.50;99921.13;2081079;28;20112;-41
2021/03/20 01:39:05;;;;;;;36.65;30.60;;;;;;;20.20;43.50;99932.06;2076593;28;20124;-41
2021/03/20 01:40:06;;;;;;;36.70;30.38;;;;;;;20.19;43.50;99919.41;2075858;28;20698;-40
2021/03/20 01:41:13;;;;;;;36.33;31.33;;;;;;;20.17;43.50;99922.31;2072759;28;20030;-40
2021/03/20 01:42:14;;;;;;;34.85;29.38;;;;;;;20.17;43.56;99926.94;2075971;28;20062;-40
2021/03/20 01:43:16;;;;;;;35.50;30.83;;;;;;;20.15;43.47;99928.97;2064755;28;20061;-41
2021/03/20 01:44:20;;;;;;;38.13;31.58;;;;;;;20.13;43.61;99923.63;2071346;28;20026;-41
2021/03/20 01:45:28;;;;;;;35.35;30.40;;;;;;;20.13;43.64;99921.75;2072137;28;20042;-41
2021/03/20 01:46:43;;;;;;;34.00;30.30;;;;;;;20.12;43.45;99922.78;2081745;28;20053;-41
2021/03/20 01:48:07;;;;;;;34.83;29.95;;;;;;;20.11;43.57;99921.09;2077380;28;20083;-42
2021/03/20 01:49:33;;;;;;;37.35;31.20;;;;;;;20.09;43.61;99917.66;2063449;28;20056;-42
2021/03/20 01:50:39;;;;;;;35.58;29.95;;;;;;;20.09;43.80;99925.84;2074137;28;20065;-42
2021/03/20 01:51:40;;;;;;;34.20;30.13;;;;;;;20.08;43.72;99915.91;2073424;28;20038;-41
2021/03/20 01:52:42;;;;;;;36.83;30.87;;;;;;;20.09;43.72;99925.00;2079935;28;20045;-41
2021/03/20 01:53:56;;;;;;;34.00;30.38;;;;;;;20.08;43.61;99923.25;2078832;28;20831;-41
2021/03/20 01:55:05;;;;;;;35.78;30.60;;;;;;;20.08;43.68;99929.59;2081501;28;20530;-41
2021/03/20 01:56:10;;;;;;;35.10;30.08;;;;;;;20.08;43.65;99926.84;2080682;28;20610;-42
2021/03/20 01:57:12;;;;;;;34.92;30.10;;;;;;;20.08;43.62;99926.00;2077993;28;20037;-42
2021/03/20 01:58:14;;;;;;;35.55;30.98;;;;;;;20.08;43.61;99923.25;2073368;28;20677;-42
2021/03/20 01:59:15;;;;;;;36.88;30.67;;;;;;;20.07;43.47;99925.16;2079033;28;20117;-42
2021/03/20 02:00:25;;;;;;;36.28;31.17;;;;;;;20.08;43.60;99929.59;2079352;28;20029;-41
2021/03/20 02:01:31;;;;;;;34.22;29.45;;;;;;;20.10;43.58;99933.03;2073483;28;20070;-41
2021/03/20 02:02:34;;;;;;;35.42;29.15;;;;;;;20.10;43.64;99930.28;2071643;28;20022;-41
2021/03/20 02:03:35;;;;;;;34.28;29.50;;;;;;;20.07;43.54;99925.16;2072458;28;20109;-41
2021/03/20 02:04:36;;;;;;;36.92;30.02;;;;;;;20.07;43.45;99937.97;2080365;28;20360;-42
2021/03/20 02:05:36;;;;;;;34.60;29.17;;;;;;;20.07;43.47;99927.88;2078375;28;20033;-41
2021/03/20 02:06:37;;;;;;;33.43;28.90;;;;;;;20.08;43.58;99937.78;2078130;28;20352;-42
2021/03/20 02:07:38;;;;;;;38.63;31.90;;;;;;;20.07;43.68;99933.34;2077969;28;20025;-41
2021/03/20 02:08:40;;;;;;;33.63;29.13;;;;;;;20.08;43.61;99934.22;2081200;28;20033;-41
2021/03/20 02:09:41;;;;;;;35.13;30.35;;;;;;;20.07;43.50;99933.34;2080785;28;20025;-42
2021/03/20 02:10:43;;;;;;;31.93;28.00;;;;;;;20.07;43.50;99938.81;2080885;28;20025;-40
2021/03/20 02:11:54;;;;;;;33.08;28.17;;;;;;;20.08;43.50;99934.22;2089762;28;20584;-41
2021/03/20 02:12:58;;;;;;;33.50;28.90;;;;;;;20.07;43.58;99932.50;2085160;28;20025;-41
2021/03/20 02:14:21;;;;;;;33.78;29.40;;;;;;;20.06;43.45;99931.66;2086044;28;20187;-41
2021/03/20 02:15:30;;;;;;;32.95;28.23;;;;;;;20.04;43.56;99933.69;2078208;28;20455;-40
2021/03/20 02:16:39;;;;;;;31.67;28.05;;;;;;;20.06;43.75;99938.97;2081098;28;20079;-41
2021/03/20 02:17:48;;;;;;;33.25;28.60;;;;;;;20.05;43.51;99938.13;2078824;28;20072;-42
2021/03/20 02:19:02;;;;;;;34.22;28.45;;;;;;;20.04;43.54;99944.63;2073204;28;20029;-41
2021/03/20 02:20:26;;;;;;;33.42;29.15;;;;;;;20.03;43.55;99937.41;2073177;28;20067;-41
2021/03/20 02:21:34;;;;;;;31.77;27.65;;;;;;;20.03;43.69;99937.41;2044549;28;20498;-41
2021/03/20 02:22:37;;;;;;;31.98;27.98;;;;;;;20.02;43.62;99941.19;2068065;28;20061;-41
2021/03/20 02:23:56;;;;;;;35.15;29.67;;;;;;;20.01;43.59;99936.72;2072680;28;20489;-42
2021/03/20 02:25:19;;;;;;;35.17;28.85;;;;;;;20.00;43.52;99925.94;2079573;28;20025;-41
2021/03/20 02:26:30;;;;;;;34.45;28.90;;;;;;;20.00;43.80;99925.94;2079782;28;20033;-41
2021/03/20 02:27:46;;;;;;;34.13;28.10;;;;;;;19.99;43.73;99930.56;2073432;28;20029;-42
2021/03/20 02:29:05;;;;;;;35.35;29.33;;;;;;;19.98;43.69;99934.31;2078527;28;20325;-40
2021/03/20 02:30:42;;;;;;;31.85;27.35;;;;;;;19.97;43.76;99927.13;2077008;28;20026;-41
2021/03/20 02:31:48;;;;;;;31.48;26.75;;;;;;;19.97;43.76;99929.03;2074518;28;20425;-41
2021/03/20 02:32:58;;;;;;;33.85;27.10;;;;;;;19.96;43.82;99941.81;2080097;28;20048;-41
2021/03/20 02:34:18;;;;;;;31.48;27.98;;;;;;;19.95;43.81;99931.91;2078632;28;20140;-42
2021/03/20 02:35:26;;;;;;;31.33;26.23;;;;;;;19.93;43.84;99931.19;2088301;28;20049;-41
2021/03/20 02:36:57;;;;;;;34.75;27.83;;;;;;;19.94;43.77;99930.16;2082017;28;20443;-41
2021/03/20 02:38:27;;;;;;;31.67;28.27;;;;;;;19.93;43.86;99939.41;2080301;28;20029;-40
2021/03/20 02:39:52;;;;;;;30.55;26.90;;;;;;;19.91;43.96;99938.69;2080082;28;20108;-42
2021/03/20 02:41:04;;;;;;;31.15;26.98;;;;;;;19.89;44.04;99936.16;2074965;28;20030;-41
2021/03/20 02:42:09;;;;;;;31.00;26.83;;;;;;;19.89;44.11;99936.16;2081409;28;20031;-41
2021/03/20 02:43:29;;;;;;;33.40;27.25;;;;;;;19.87;43.81;99945.53;2080655;28;20026;-41
2021/03/20 02:45:09;;;;;;;29.98;26.52;;;;;;;19.86;44.14;99941.06;2080515;28;20036;-41
2021/03/20 02:46:21;;;;;;;30.35;26.05;;;;;;;19.85;44.17;99936.63;2073083;28;20110;-40
2021/03/20 02:47:29;;;;;;;29.50;25.60;;;;;;;19.85;44.23;99936.63;2073246;28;20040;-41
2021/03/20 02:48:50;;;;;;;30.48;25.88;;;;;;;19.85;44.13;99933.88;2074600;28;20044;-41
2021/03/20 02:50:02;;;;;;;32.33;27.63;;;;;;;19.83;44.21;99941.38;2076323;28;20044;-42
2021/03/20 02:51:27;;;;;;;32.05;26.85;;;;;;;19.82;44.10;99936.91;2073623;28;20522;-41
2021/03/20 02:52:45;;;;;;;28.92;25.70;;;;;;;19.80;44.25;99938.97;2078192;28;20037;-41
2021/03/20 02:53:54;;;;;;;28.98;25.05;;;;;;;19.81;44.17;99937.94;2078198;28;20029;-41
2021/03/20 02:55:12;;;;;;;30.27;25.63;;;;;;;19.81;44.24;99946.16;2077582;28;20045;-41
2021/03/20 02:56:21;;;;;;;28.25;25.15;;;;;;;19.81;44.18;99944.25;2073114;28;20112;-42
2021/03/20 02:57:27;;;;;;;32.45;25.98;;;;;;;19.82;44.23;99945.13;2074261;28;20081;-42
2021/03/20 02:58:36;;;;;;;31.27;26.83;;;;;;;19.81;44.09;99952.47;2076591;28;20055;-42
2021/03/20 02:59:45;;;;;;;30.60;25.85;;;;;;;19.81;44.12;99949.72;2080722;28;20037;-41
2021/03/20 03:00:53;;;;;;;31.00;26.02;;;;;;;19.82;44.29;99945.13;2080529;28;20029;-41
2021/03/20 03:01:55;;;;;;;32.25;26.02;;;;;;;19.82;44.17;99948.72;2080394;28;20029;-40
2021/03/20 03:02:57;;;;;;;31.27;24.35;;;;;;;19.81;43.95;99947.00;2078149;28;20054;-40
2021/03/20 03:04:00;;;;;;;31.65;26.48;;;;;;;19.82;44.09;99945.13;2068011;28;20095;-41
2021/03/20 03:05:07;;;;;;;29.83;25.95;;;;;;;19.83;44.07;99944.13;2071957;28;20033;-40
2021/03/20 03:06:34;;;;;;;28.65;25.55;;;;;;;19.83;43.95;99941.38;2073432;28;20045;-41
2021/03/20 03:07:42;;;;;;;29.55;24.95;;;;;;;19.82;44.01;99954.19;2080096;28;20467;-41
2021/03/20 03:08:47;;;;;;;30.80;26.65;;;;;;;19.82;43.86;99945.13;2074026;28;20302;-41
2021/03/20 03:09:55;;;;;;;28.02;24.92;;;;;;;19.84;44.00;99954.03;2075263;28;20022;-41
2021/03/20 03:11:02;;;;;;;27.75;24.17;;;;;;;19.84;43.97;99956.75;2072762;28;20312;-41
2021/03/20 03:12:06;;;;;;;28.42;23.73;;;;;;;19.83;43.96;99952.31;2079517;28;20415;-41
2021/03/20 03:13:29;;;;;;;29.95;26.33;;;;;;;19.83;43.90;99957.78;2080724;28;20021;-41
2021/03/20 03:14:40;;;;;;;28.00;23.58;;;;;;;19.83;44.02;99957.78;2067998;28;20135;-42
2021/03/20 03:15:45;;;;;;;29.15;25.00;;;;;;;19.82;43.94;99958.78;2080847;28;20515;-40
2021/03/20 03:16:48;;;;;;;27.10;24.17;;;;;;;19.82;43.95;99956.06;2088088;28;20025;-41
2021/03/20 03:17:54;;;;;;;29.85;24.70;;;;;;;19.83;43.95;99958.66;2087958;28;20043;-41
2021/03/20 03:19:00;;;;;;;28.95;25.05;;;;;;;19.81;43.93;99957.09;2086342;28;20027;-40
2021/03/20 03:20:20;;;;;;;28.33;24.45;;;;;;;19.81;43.92;99960.66;2080171;28;20179;-40
2021/03/20 03:21:23;;;;;;;29.30;25.27;;;;;;;19.81;43.95;99957.09;2073245;28;20026;-41
2021/03/20 03:22:30;;;;;;;29.33;24.20;;;;;;;19.80;43.97;99955.38;2077712;28;20307;-41
2021/03/20 03:23:34;;;;;;;26.00;23.20;;;;;;;19.78;43.94;99961.00;2072981;28;20081;-42
2021/03/20 03:24:38;;;;;;;28.25;23.58;;;;;;;19.79;43.94;99953.63;2073913;28;20022;-41
2021/03/20 03:25:42;;;;;;;25.35;22.42;;;;;;;19.78;44.04;99954.66;2081108;28;20033;-41
2021/03/20 03:26:50;;;;;;;28.40;24.70;;;;;;;19.77;44.02;99959.28;2077060;28;20029;-42
2021/03/20 03:27:54;;;;;;;25.27;22.17;;;;;;;19.77;44.21;99958.41;2080871;28;20082;-42
2021/03/20 03:29:02;;;;;;;29.92;24.30;;;;;;;19.76;44.05;99959.44;2080358;28;20045;-41
2021/03/20 03:30:09;;;;;;;27.52;22.73;;;;;;;19.75;44.08;99960.47;2080136;28;20529;-41
2021/03/20 03:31:34;;;;;;;26.45;22.77;;;;;;;19.75;44.12;99960.47;2082197;28;20084;-41
2021/03/20 03:32:39;;;;;;;27.33;23.63;;;;;;;19.74;44.10;99961.47;2072252;28;20118;-42
2021/03/20 03:33:47;;;;;;;28.45;24.48;;;;;;;19.73;44.12;99962.50;2073628;28;20448;-41
2021/03/20 03:34:58;;;;;;;28.83;23.90;;;;;;;19.72;44.25;99966.22;2071850;28;20036;-41
2021/03/20 03:36:04;;;;;;;28.02;23.45;;;;;;;19.72;44.07;99966.22;2089209;28;20025;-40
2021/03/20 03:37:17;;;;;;;31.17;22.95;;;;;;;19.70;44.19;99970.00;2079997;28;20098;-41
2021/03/20 03:38:54;;;;;;;31.00;24.08;;;;;;;19.69;44.19;99970.13;2080140;28;20095;-42
2021/03/20 03:39:59;;;;;;;27.70;23.77;;;;;;;19.68;44.10;99972.00;2078456;28;20105;-41
2021/03/20 03:41:06;;;;;;;27.90;23.08;;;;;;;19.68;44.17;99969.28;2081045;28;20243;-40
2021/03/20 03:42:11;;;;;;;25.17;22.13;;;;;;;19.66;44.26;99979.47;2080484;28;20490;-41
2021/03/20 03:43:12;;;;;;;26.45;22.98;;;;;;;19.63;44.17;99974.34;2082210;28;20021;-41
2021/03/20 03:44:12;;;;;;;28.05;23.13;;;;;;;19.64;44.39;99976.03;2088935;28;20038;-41
2021/03/20 03:45:15;;;;;;;27.23;23.40;;;;;;;19.66;44.36;99978.63;2086620;28;20411;-41
2021/03/20 03:46:19;;;;;;;28.13;22.88;;;;;;;19.65;44.31;99982.41;2077863;28;20029;-41
2021/03/20 03:47:23;;;;;;;25.77;22.02;;;;;;;19.64;44.47;99980.66;2077748;28;20033;-40
2021/03/20 03:48:25;;;;;;;27.63;23.85;;;;;;;19.64;44.40;99975.19;2077115;28;20026;-42
2021/03/20 03:49:26;;;;;;;27.05;22.73;;;;;;;19.62;44.47;99978.09;2076032;28;20026;-41
2021/03/20 03:50:37;;;;;;;26.73;22.92;;;;;;;19.60;44.32;99993.78;2076372;28;20038;-41
2021/03/20 03:51:38;;;;;;;26.65;22.67;;;;;;;19.62;44.31;99983.56;2073143;28;20026;-41
2021/03/20 03:52:38;;;;;;;27.03;23.53;;;;;;;19.60;44.43;99991.06;2088170;28;20028;-41
2021/03/20 03:53:39;;;;;;;25.77;22.40;;;;;;;19.60;44.41;99988.31;2086814;28;20030;-41
2021/03/20 03:54:41;;;;;;;25.33;21.23;;;;;;;19.59;44.59;99993.94;2089169;28;20029;-41
2021/03/20 03:55:42;;;;;;;27.95;22.95;;;;;;;19.58;44.51;99987.63;2085311;28;20031;-41
2021/03/20 03:56:50;;;;;;;25.57;21.90;;;;;;;19.57;44.50;99988.63;2084797;28;20028;-41
2021/03/20 03:58:05;;;;;;;28.42;23.58;;;;;;;19.58;44.49;99987.63;2076529;28;20029;-41
2021/03/20 03:59:15;;;;;;;26.58;22.00;;;;;;;19.59;44.63;99989.31;2080051;28;20488;-41
2021/03/20 04:00:50;;;;;;;28.45;22.08;;;;;;;19.59;44.52;99993.94;2065325;28;20715;-42
2021/03/20 04:02:09;;;;;;;27.55;23.05;;;;;;;19.59;44.52;99988.47;2067110;28;20060;-41
2021/03/20 04:03:39;;;;;;;27.27;21.30;;;;;;;19.59;44.54;99989.31;2072883;28;20030;-41
2021/03/20 04:04:54;;;;;;;23.92;20.77;;;;;;;19.60;44.57;99996.53;2072816;28;20025;-41
2021/03/20 04:06:24;;;;;;;29.23;22.83;;;;;;;19.59;44.58;99994.78;2086933;28;20051;-41
2021/03/20 04:07:58;;;;;;;24.60;20.80;;;;;;;19.61;44.48;99992.75;2078200;28;20056;-41
2021/03/20 04:09:23;;;;;;;23.52;20.95;;;;;;;19.60;44.51;99993.78;2079251;28;20408;-41
2021/03/20 04:10:37;;;;;;;26.52;21.70;;;;;;;19.59;44.35;99991.19;2072450;28;20424;-40
2021/03/20 04:11:56;;;;;;;25.95;21.80;;;;;;;19.61;44.42;99991.91;2072927;28;20060;-40
2021/03/20 04:13:19;;;;;;;25.23;22.20;;;;;;;19.60;44.41;99991.06;2080156;28;20033;-41
2021/03/20 04:14:44;;;;;;;25.23;21.20;;;;;;;19.61;44.27;99998.22;2076481;28;20816;-41
2021/03/20 04:16:15;;;;;;;24.90;21.23;;;;;;;19.60;44.29;99993.78;2079223;28;20022;-41
2021/03/20 04:17:30;;;;;;;24.00;21.50;;;;;;;19.61;44.13;100003.69;2077392;28;20033;-40
2021/03/20 04:18:52;;;;;;;25.48;21.50;;;;;;;19.62;44.14;100002.69;2088871;28;20036;-41
2021/03/20 04:20:00;;;;;;;26.70;21.40;;;;;;;19.61;44.00;100003.69;2077268;28;20037;-42
2021/03/20 04:21:17;;;;;;;24.23;20.55;;;;;;;19.62;44.25;99988.16;2082817;28;20120;-41
2021/03/20 04:22:46;;;;;;;22.35;19.95;;;;;;;19.60;44.15;99996.53;2076240;28;20081;-41
2021/03/20 04:24:00;;;;;;;24.52;21.52;;;;;;;19.60;44.11;99995.63;2072108;28;20438;-41
2021/03/20 04:25:27;;;;;;;25.25;21.10;;;;;;;19.61;44.31;100005.59;2071510;28;20108;-41
2021/03/20 04:26:37;;;;;;;22.73;19.80;;;;;;;19.59;44.22;100000.25;2083456;28;20036;-41
2021/03/20 04:27:45;;;;;;;26.67;21.50;;;;;;;19.59;44.17;99999.41;2085604;28;20202;-42
2021/03/20 04:29:00;;;;;;;25.58;20.55;;;;;;;19.59;44.23;100007.59;2080921;28;20064;-41
2021/03/20 04:30:07;;;;;;;24.67;20.67;;;;;;;19.58;44.20;100001.28;2083231;28;20033;-41
2021/03/20 04:31:18;;;;;;;21.70;19.40;;;;;;;19.59;44.32;100010.34;2081244;28;20095;-40
2021/03/20 04:32:54;;;;;;;24.02;21.30;;;;;;;19.58;44.35;100011.38;2080736;28;20786;-41
2021/03/20 04:34:15;;;;;;;25.98;21.55;;;;;;;19.55;44.38;100015.28;2072301;28;20046;-41
2021/03/20 04:35:16;;;;;;;23.88;20.30;;;;;;;19.55;44.37;100008.91;2073089;28;20030;-42
2021/03/20 04:36:22;;;;;;;23.03;19.17;;;;;;;19.54;44.26;100016.28;2079694;28;20128;-40
2021/03/20 04:37:27;;;;;;;21.05;18.73;;;;;;;19.54;44.30;100016.28;2080944;28;20087;-41
2021/03/20 04:38:27;;;;;;;23.45;19.70;;;;;;;19.53;44.37;100011.84;2079493;28;20700;-41
2021/03/20 04:39:33;;;;;;;22.00;18.73;;;;;;;19.54;44.30;100021.75;2080198;28;20070;-41
2021/03/20 04:40:46;;;;;;;21.95;19.40;;;;;;;19.53;44.42;100011.84;2081127;28;20044;-41
2021/03/20 04:41:48;;;;;;;24.00;19.90;;;;;;;19.52;44.45;100015.56;2079453;28;20030;-42
2021/03/20 04:42:49;;;;;;;24.67;20.60;;;;;;;19.52;44.44;100018.28;2081611;28;20032;-41
2021/03/20 04:43:50;;;;;;;22.07;19.67;;;;;;;19.50;44.38;100017.63;2080281;28;20075;-41
2021/03/20 04:44:52;;;;;;;21.90;18.50;;;;;;;19.49;44.38;100016.72;2077235;28;20040;-41
2021/03/20 04:46:01;;;;;;;23.77;18.33;;;;;;;19.50;44.53;100017.63;2079239;28;20148;-41
2021/03/20 04:47:07;;;;;;;23.27;19.20;;;;;;;19.48;44.50;100014.19;2085351;28;20334;-40
2021/03/20 04:48:19;;;;;;;24.27;19.70;;;;;;;19.46;44.62;100021.66;2084119;28;20030;-42
2021/03/20 04:49:28;;;;;;;22.00;19.13;;;;;;;19.46;44.57;100021.66;2079261;28;20101;-41
2021/03/20 04:50:29;;;;;;;21.50;18.80;;;;;;;19.44;44.66;100018.22;2077479;28;20037;-41
2021/03/20 04:51:39;;;;;;;23.88;18.38;;;;;;;19.46;44.64;100018.94;2085738;28;20060;-41
2021/03/20 04:52:43;;;;;;;22.23;19.17;;;;;;;19.44;44.55;100029.16;2074047;28;20049;-42
2021/03/20 04:53:43;;;;;;;21.85;18.70;;;;;;;19.42;44.64;100023.81;2081541;28;20116;-42
2021/03/20 04:54:44;;;;;;;20.30;17.87;;;;;;;19.43;44.71;100032.91;2078661;28;20459;-41
2021/03/20 04:55:45;;;;;;;20.80;18.60;;;;;;;19.41;44.60;100029.47;2079075;28;20029;-41
2021/03/20 04:56:52;;;;;;;22.60;19.45;;;;;;;19.41;44.77;100024.84;2081391;28;20268;-42
2021/03/20 04:57:59;;;;;;;22.35;19.02;;;;;;;19.41;44.53;100035.78;2083667;28;20434;-41
2021/03/20 04:59:07;;;;;;;22.63;18.55;;;;;;;19.43;44.58;100027.44;2084573;28;20084;-41
2021/03/20 05:00:24;;;;;;;22.83;18.88;;;;;;;19.43;44.68;100031.03;2082020;28;20073;-41
2021/03/20 05:01:42;;;;;;;20.80;17.33;;;;;;;19.43;44.60;100038.38;2074152;28;20111;-41
2021/03/20 05:02:57;;;;;;;22.05;19.30;;;;;;;19.43;44.71;100036.50;2087031;28;20043;-41
2021/03/20 05:04:06;;;;;;;20.65;17.27;;;;;;;19.44;44.68;100034.63;2080535;28;20055;-42
2021/03/20 05:05:14;;;;;;;24.05;19.95;;;;;;;19.43;44.67;100035.66;2083074;28;20083;-42
2021/03/20 05:06:22;;;;;;;22.48;18.80;;;;;;;19.45;44.58;100033.59;2081906;28;20069;-41
2021/03/20 05:07:23;;;;;;;20.42;17.95;;;;;;;19.44;44.50;100038.22;2085734;28;20427;-41
2021/03/20 05:08:46;;;;;;;20.90;18.00;;;;;;;19.43;44.58;100038.38;2078740;28;20038;-41
2021/03/20 05:09:56;;;;;;;21.98;18.23;;;;;;;19.44;44.43;100037.34;2075799;28;20033;-41